Riva, MD (21140)

1:52 PM EDT on September 18, 2014 (GMT -0400)
Sylvan Shores | Change Station
CLOSE
Current Station
Personal Weather Station
Location: Riva, MD
Elevation: 50 ft
Nearby Weather Stations
Active Advisory: Coastal Flood Advisory

Elev 50 ft 38.96 °N, 76.58 °W | Updated 9 seconds ago

Partly Cloudy
Partly Cloudy
73.7 °F
Feels Like 77 °F
N
0.0
Wind Variable Wind from SSW
Gusts 0.0 mph

Today
High -- | Low -- °F
--% Chance of Precip.
Yesterday
High -- | Low -- °F
Precip. -- in
6:50 AM 7:09 PM
Waning Crescent, 25% visible
Pressure 30.02 in
Visibility 10.0 miles
Clouds Few 6000 ft
Scattered Clouds 9500 ft
Heat Index 77 °F
Dew Point 58 °F
Humidity 58%
Rainfall 0.00 in
Snow Depth Not available.
UV 6 out of 12
Pollen 4.10 out of 12
Air Quality Not available.
Flu Activity Not available.
METAR KNAK 181554Z AUTO 21006KT 10SM FEW060 SCT095 22/15 A3002 RMK AO2 SLP166 T02170150 $

More Conditions Fewer Conditions

Pressure 30.02 in
Visibility 10.0 miles
Clouds Few 6000 ft
Scattered Clouds 9500 ft
Heat Index 77 °F
Dew Point 58 °F
Humidity 58%
Rainfall 0.00 in
Snow Depth Not available.
UV 6 out of 12
Pollen 4.10 out of 12
Air Quality Not available.
Flu Activity Not available.
METAR KNAK 181554Z AUTO 21006KT 10SM FEW060 SCT095 22/15 A3002 RMK AO2 SLP166 T02170150 $

More Conditions Fewer Conditions

10-Day Weather Forecast

Almanac

Astronomy

Sep. 18, 2014 Rise Set
Actual Time 6:50 AM EDT 7:09 PM EDT
Civil Twilight 6:23 AM EDT 7:36 PM EDT
Nautical Twilight 5:52 AM EDT 8:07 PM EDT
Astronomical Twilight 5:20 AM EDT 8:39 PM EDT
Moon 1:42 AM EDT 3:57 PM EDT
Length of Visible Light 13h 12m
Length of Day
12h 19m
Tomorrow will be 2m 30s shorter.
Waning Crescent, 25% of the Moon is Illuminated
Today
Waning Crescent
Sep 24
New
Oct 1
First Quarter
Oct 8
Full
Oct 15
Last Quarter

Today's Extremes

State Highs State Lows

Community

WunderPhotos

Upload Photos

1,754,409 photos uploaded!

Nearby

Snow Depth

Station Depth Elevation
No new snow has been reported.

Earthquake Activity

City Distance Mag. Time & Date
No recent earthquake activity has been reported nearby.
Minimum magnitude displayed is 2.5.

Coastal Water Temperatures

Place Temperature
Cambridge, MD 73.9 °F
Tolchester Beach, MD 73.0 °F
Baltimore, MD 77.0 °F

Nearby Weather Stations